sensor_id;sensor_type;location;lat;lon;timestamp;P1;durP1;ratioP1;P2;durP2;ratioP2
68938;SDS011;59064;45.294;11.816;2022-12-05T00:03:42;15.50;;;7.50;;
68938;SDS011;59064;45.294;11.816;2022-12-05T00:06:07;14.30;;;9.30;;
68938;SDS011;59064;45.294;11.816;2022-12-05T00:08:33;16.00;;;9.10;;
68938;SDS011;59064;45.294;11.816;2022-12-05T00:10:59;15.90;;;10.10;;
68938;SDS011;59064;45.294;11.816;2022-12-05T00:13:24;16.40;;;10.50;;
68938;SDS011;59064;45.294;11.816;2022-12-05T00:15:49;18.40;;;11.90;;
68938;SDS011;59064;45.294;11.816;2022-12-05T00:18:15;18.90;;;12.40;;
68938;SDS011;59064;45.294;11.816;2022-12-05T00:20:47;22.70;;;13.70;;
68938;SDS011;59064;45.294;11.816;2022-12-05T00:23:13;18.60;;;12.20;;
68938;SDS011;59064;45.294;11.816;2022-12-05T00:25:39;20.10;;;13.30;;
68938;SDS011;59064;45.294;11.816;2022-12-05T00:28:06;19.80;;;13.00;;
68938;SDS011;59064;45.294;11.816;2022-12-05T00:30:31;19.60;;;13.70;;
68938;SDS011;59064;45.294;11.816;2022-12-05T00:32:57;19.00;;;12.50;;
68938;SDS011;59064;45.294;11.816;2022-12-05T00:35:22;16.60;;;12.20;;
68938;SDS011;59064;45.294;11.816;2022-12-05T00:37:48;15.70;;;11.90;;
68938;SDS011;59064;45.294;11.816;2022-12-05T00:40:14;17.60;;;12.90;;
68938;SDS011;59064;45.294;11.816;2022-12-05T00:42:39;17.10;;;11.30;;
68938;SDS011;59064;45.294;11.816;2022-12-05T00:45:05;18.10;;;12.80;;
68938;SDS011;59064;45.294;11.816;2022-12-05T00:47:33;18.30;;;11.80;;
68938;SDS011;59064;45.294;11.816;2022-12-05T00:50:02;17.70;;;11.60;;
68938;SDS011;59064;45.294;11.816;2022-12-05T00:52:29;17.40;;;12.40;;
68938;SDS011;59064;45.294;11.816;2022-12-05T00:54:55;14.70;;;11.20;;
68938;SDS011;59064;45.294;11.816;2022-12-05T00:57:21;13.80;;;9.30;;
68938;SDS011;59064;45.294;11.816;2022-12-05T00:59:46;13.20;;;8.20;;
68938;SDS011;59064;45.294;11.816;2022-12-05T01:02:12;16.20;;;11.30;;
68938;SDS011;59064;45.294;11.816;2022-12-05T01:04:37;15.50;;;10.50;;
68938;SDS011;59064;45.294;11.816;2022-12-05T01:07:03;12.70;;;9.00;;
68938;SDS011;59064;45.294;11.816;2022-12-05T01:09:29;12.60;;;9.60;;
68938;SDS011;59064;45.294;11.816;2022-12-05T01:11:54;14.90;;;10.20;;
68938;SDS011;59064;45.294;11.816;2022-12-05T01:14:20;13.50;;;8.40;;
68938;SDS011;59064;45.294;11.816;2022-12-05T01:16:48;13.80;;;9.70;;
68938;SDS011;59064;45.294;11.816;2022-12-05T01:19:16;12.90;;;8.90;;
68938;SDS011;59064;45.294;11.816;2022-12-05T01:21:43;11.80;;;8.40;;
68938;SDS011;59064;45.294;11.816;2022-12-05T01:24:09;10.90;;;6.90;;
68938;SDS011;59064;45.294;11.816;2022-12-05T01:26:36;11.00;;;6.90;;
68938;SDS011;59064;45.294;11.816;2022-12-05T01:29:02;11.40;;;7.90;;
68938;SDS011;59064;45.294;11.816;2022-12-05T01:31:30;11.90;;;8.60;;
68938;SDS011;59064;45.294;11.816;2022-12-05T01:33:58;11.90;;;8.60;;
68938;SDS011;59064;45.294;11.816;2022-12-05T01:36:25;13.30;;;8.90;;
68938;SDS011;59064;45.294;11.816;2022-12-05T01:38:52;11.70;;;8.40;;
68938;SDS011;59064;45.294;11.816;2022-12-05T01:41:28;11.60;;;8.60;;
68938;SDS011;59064;45.294;11.816;2022-12-05T01:46:29;11.30;;;7.90;;
68938;SDS011;59064;45.294;11.816;2022-12-05T01:48:59;12.70;;;8.60;;
68938;SDS011;59064;45.294;11.816;2022-12-05T01:51:29;11.60;;;7.90;;
68938;SDS011;59064;45.294;11.816;2022-12-05T01:53:56;13.80;;;9.00;;
68938;SDS011;59064;45.294;11.816;2022-12-05T01:56:22;10.70;;;7.10;;
68938;SDS011;59064;45.294;11.816;2022-12-05T01:58:48;12.90;;;8.20;;
68938;SDS011;59064;45.294;11.816;2022-12-05T02:01:14;12.30;;;8.00;;
68938;SDS011;59064;45.294;11.816;2022-12-05T02:03:41;12.20;;;8.20;;
68938;SDS011;59064;45.294;11.816;2022-12-05T02:06:08;12.10;;;8.40;;
68938;SDS011;59064;45.294;11.816;2022-12-05T02:08:35;12.30;;;8.70;;
68938;SDS011;59064;45.294;11.816;2022-12-05T02:11:02;11.70;;;7.70;;
68938;SDS011;59064;45.294;11.816;2022-12-05T02:13:50;12.60;;;8.30;;
68938;SDS011;59064;45.294;11.816;2022-12-05T02:19:04;13.90;;;10.30;;
68938;SDS011;59064;45.294;11.816;2022-12-05T02:43:39;12.60;;;9.10;;
68938;SDS011;59064;45.294;11.816;2022-12-05T02:46:13;13.40;;;9.30;;
68938;SDS011;59064;45.294;11.816;2022-12-05T02:48:43;14.10;;;9.60;;
68938;SDS011;59064;45.294;11.816;2022-12-05T02:51:10;13.10;;;9.50;;
68938;SDS011;59064;45.294;11.816;2022-12-05T02:53:40;11.40;;;8.70;;
68938;SDS011;59064;45.294;11.816;2022-12-05T02:56:07;12.90;;;8.90;;
68938;SDS011;59064;45.294;11.816;2022-12-05T02:58:35;11.60;;;8.10;;
68938;SDS011;59064;45.294;11.816;2022-12-05T03:01:08;15.50;;;9.50;;
68938;SDS011;59064;45.294;11.816;2022-12-05T03:03:34;13.00;;;9.20;;
68938;SDS011;59064;45.294;11.816;2022-12-05T03:08:29;16.30;;;9.10;;
68938;SDS011;59064;45.294;11.816;2022-12-05T03:11:00;12.70;;;8.50;;
68938;SDS011;59064;45.294;11.816;2022-12-05T03:13:29;13.00;;;9.70;;
68938;SDS011;59064;45.294;11.816;2022-12-05T03:16:01;13.40;;;9.40;;
68938;SDS011;59064;45.294;11.816;2022-12-05T03:18:31;14.80;;;10.50;;
68938;SDS011;59064;45.294;11.816;2022-12-05T03:21:03;17.30;;;10.90;;
68938;SDS011;59064;45.294;11.816;2022-12-05T03:23:39;14.90;;;10.90;;
68938;SDS011;59064;45.294;11.816;2022-12-05T03:37:46;13.70;;;9.80;;
68938;SDS011;59064;45.294;11.816;2022-12-05T03:43:08;13.80;;;9.90;;
68938;SDS011;59064;45.294;11.816;2022-12-05T03:46:10;12.70;;;9.40;;
68938;SDS011;59064;45.294;11.816;2022-12-05T03:48:37;12.30;;;9.90;;
68938;SDS011;59064;45.294;11.816;2022-12-05T03:51:10;13.40;;;9.50;;
68938;SDS011;59064;45.294;11.816;2022-12-05T03:53:41;14.00;;;9.20;;
68938;SDS011;59064;45.294;11.816;2022-12-05T03:56:17;12.00;;;8.50;;
68938;SDS011;59064;45.294;11.816;2022-12-05T03:58:50;11.20;;;7.50;;
68938;SDS011;59064;45.294;11.816;2022-12-05T04:01:17;13.30;;;8.90;;
68938;SDS011;59064;45.294;11.816;2022-12-05T04:03:47;13.10;;;8.10;;
68938;SDS011;59064;45.294;11.816;2022-12-05T04:06:21;12.00;;;7.70;;
68938;SDS011;59064;45.294;11.816;2022-12-05T04:08:49;11.70;;;7.60;;
68938;SDS011;59064;45.294;11.816;2022-12-05T04:11:19;10.60;;;5.50;;
68938;SDS011;59064;45.294;11.816;2022-12-05T04:13:49;8.30;;;5.80;;
68938;SDS011;59064;45.294;11.816;2022-12-05T04:16:24;11.70;;;7.50;;
68938;SDS011;59064;45.294;11.816;2022-12-05T04:22:21;10.30;;;8.00;;
68938;SDS011;59064;45.294;11.816;2022-12-05T04:24:49;6.90;;;3.90;;
68938;SDS011;59064;45.294;11.816;2022-12-05T04:30:25;10.90;;;7.20;;
68938;SDS011;59064;45.294;11.816;2022-12-05T04:36:08;11.10;;;7.50;;
68938;SDS011;59064;45.294;11.816;2022-12-05T04:38:40;9.70;;;6.50;;
68938;SDS011;59064;45.294;11.816;2022-12-05T04:41:13;12.50;;;6.30;;
68938;SDS011;59064;45.294;11.816;2022-12-05T04:43:43;11.90;;;7.90;;
68938;SDS011;59064;45.294;11.816;2022-12-05T04:46:11;12.00;;;7.70;;
68938;SDS011;59064;45.294;11.816;2022-12-05T04:48:40;11.30;;;7.30;;
68938;SDS011;59064;45.294;11.816;2022-12-05T04:51:11;11.50;;;7.70;;
68938;SDS011;59064;45.294;11.816;2022-12-05T04:53:41;12.60;;;8.10;;
68938;SDS011;59064;45.294;11.816;2022-12-05T04:56:08;12.10;;;7.10;;
68938;SDS011;59064;45.294;11.816;2022-12-05T04:58:36;10.50;;;7.30;;
68938;SDS011;59064;45.294;11.816;2022-12-05T05:03:49;12.40;;;6.80;;
68938;SDS011;59064;45.294;11.816;2022-12-05T05:06:18;10.70;;;6.50;;
68938;SDS011;59064;45.294;11.816;2022-12-05T05:08:51;12.70;;;7.50;;
68938;SDS011;59064;45.294;11.816;2022-12-05T05:11:21;11.50;;;7.50;;
68938;SDS011;59064;45.294;11.816;2022-12-05T05:13:49;12.50;;;7.20;;
68938;SDS011;59064;45.294;11.816;2022-12-05T05:16:16;12.20;;;7.60;;
68938;SDS011;59064;45.294;11.816;2022-12-05T05:18:47;10.60;;;6.30;;
68938;SDS011;59064;45.294;11.816;2022-12-05T05:21:14;12.80;;;7.50;;
68938;SDS011;59064;45.294;11.816;2022-12-05T05:23:41;14.20;;;8.40;;
68938;SDS011;59064;45.294;11.816;2022-12-05T05:26:07;11.30;;;7.90;;
68938;SDS011;59064;45.294;11.816;2022-12-05T05:28:32;12.80;;;7.80;;
68938;SDS011;59064;45.294;11.816;2022-12-05T05:31:04;13.00;;;8.00;;
68938;SDS011;59064;45.294;11.816;2022-12-05T05:33:30;12.50;;;8.10;;
68938;SDS011;59064;45.294;11.816;2022-12-05T05:36:00;11.60;;;8.00;;
68938;SDS011;59064;45.294;11.816;2022-12-05T05:38:30;18.80;;;11.80;;
68938;SDS011;59064;45.294;11.816;2022-12-05T05:40:59;12.60;;;8.00;;
68938;SDS011;59064;45.294;11.816;2022-12-05T05:43:24;12.10;;;7.50;;
68938;SDS011;59064;45.294;11.816;2022-12-05T05:45:49;11.30;;;7.60;;
68938;SDS011;59064;45.294;11.816;2022-12-05T05:48:15;12.30;;;7.70;;
68938;SDS011;59064;45.294;11.816;2022-12-05T05:50:40;13.10;;;8.10;;
68938;SDS011;59064;45.294;11.816;2022-12-05T05:53:06;12.10;;;7.60;;
68938;SDS011;59064;45.294;11.816;2022-12-05T05:55:31;12.60;;;8.60;;
68938;SDS011;59064;45.294;11.816;2022-12-05T05:57:57;11.70;;;7.80;;
68938;SDS011;59064;45.294;11.816;2022-12-05T06:00:22;12.80;;;7.20;;
68938;SDS011;59064;45.294;11.816;2022-12-05T06:02:48;14.20;;;8.90;;
68938;SDS011;59064;45.294;11.816;2022-12-05T06:05:13;11.20;;;7.30;;
68938;SDS011;59064;45.294;11.816;2022-12-05T06:07:39;12.50;;;8.20;;
68938;SDS011;59064;45.294;11.816;2022-12-05T06:10:04;12.40;;;7.90;;
68938;SDS011;59064;45.294;11.816;2022-12-05T06:12:30;11.70;;;7.30;;
68938;SDS011;59064;45.294;11.816;2022-12-05T06:14:56;10.90;;;7.20;;
68938;SDS011;59064;45.294;11.816;2022-12-05T06:17:21;13.00;;;8.30;;
68938;SDS011;59064;45.294;11.816;2022-12-05T06:19:47;10.80;;;6.80;;
68938;SDS011;59064;45.294;11.816;2022-12-05T06:22:12;13.10;;;8.50;;
68938;SDS011;59064;45.294;11.816;2022-12-05T06:24:38;11.20;;;6.80;;
68938;SDS011;59064;45.294;11.816;2022-12-05T06:27:03;11.20;;;7.30;;
68938;SDS011;59064;45.294;11.816;2022-12-05T06:29:29;12.90;;;7.80;;
68938;SDS011;59064;45.294;11.816;2022-12-05T06:31:55;12.30;;;7.90;;
68938;SDS011;59064;45.294;11.816;2022-12-05T06:34:20;13.70;;;9.20;;
68938;SDS011;59064;45.294;11.816;2022-12-05T06:36:46;11.40;;;7.90;;
68938;SDS011;59064;45.294;11.816;2022-12-05T06:39:11;12.70;;;8.00;;
68938;SDS011;59064;45.294;11.816;2022-12-05T06:41:36;12.20;;;6.70;;
68938;SDS011;59064;45.294;11.816;2022-12-05T06:44:02;14.10;;;8.60;;
68938;SDS011;59064;45.294;11.816;2022-12-05T06:46:28;12.30;;;7.80;;
68938;SDS011;59064;45.294;11.816;2022-12-05T06:48:55;12.50;;;7.30;;
68938;SDS011;59064;45.294;11.816;2022-12-05T06:51:21;11.60;;;7.80;;
68938;SDS011;59064;45.294;11.816;2022-12-05T06:53:48;13.20;;;8.20;;
68938;SDS011;59064;45.294;11.816;2022-12-05T06:56:14;12.70;;;7.70;;
68938;SDS011;59064;45.294;11.816;2022-12-05T06:58:42;12.20;;;8.20;;
68938;SDS011;59064;45.294;11.816;2022-12-05T07:01:13;10.60;;;6.50;;
68938;SDS011;59064;45.294;11.816;2022-12-05T07:03:58;13.10;;;8.70;;
68938;SDS011;59064;45.294;11.816;2022-12-05T07:06:25;12.30;;;7.80;;
68938;SDS011;59064;45.294;11.816;2022-12-05T07:08:51;12.70;;;8.40;;
68938;SDS011;59064;45.294;11.816;2022-12-05T07:11:16;11.80;;;7.00;;
68938;SDS011;59064;45.294;11.816;2022-12-05T07:13:42;11.20;;;7.00;;
68938;SDS011;59064;45.294;11.816;2022-12-05T07:16:07;13.40;;;8.80;;
68938;SDS011;59064;45.294;11.816;2022-12-05T07:18:33;11.20;;;7.70;;
68938;SDS011;59064;45.294;11.816;2022-12-05T07:21:04;11.60;;;7.10;;
68938;SDS011;59064;45.294;11.816;2022-12-05T07:23:31;12.40;;;8.60;;
68938;SDS011;59064;45.294;11.816;2022-12-05T07:25:56;12.80;;;8.60;;
68938;SDS011;59064;45.294;11.816;2022-12-05T07:28:22;11.40;;;7.70;;
68938;SDS011;59064;45.294;11.816;2022-12-05T07:30:57;10.80;;;7.20;;
68938;SDS011;59064;45.294;11.816;2022-12-05T07:33:24;13.00;;;7.00;;
68938;SDS011;59064;45.294;11.816;2022-12-05T07:35:49;11.10;;;7.10;;
68938;SDS011;59064;45.294;11.816;2022-12-05T07:38:14;11.40;;;7.00;;
68938;SDS011;59064;45.294;11.816;2022-12-05T07:40:40;12.10;;;8.00;;
68938;SDS011;59064;45.294;11.816;2022-12-05T07:43:05;12.60;;;8.60;;
68938;SDS011;59064;45.294;11.816;2022-12-05T07:45:32;11.80;;;8.00;;
68938;SDS011;59064;45.294;11.816;2022-12-05T07:47:58;12.00;;;7.70;;
68938;SDS011;59064;45.294;11.816;2022-12-05T07:50:24;9.90;;;6.80;;
68938;SDS011;59064;45.294;11.816;2022-12-05T07:52:49;12.00;;;7.70;;
68938;SDS011;59064;45.294;11.816;2022-12-05T07:55:15;11.80;;;8.30;;
68938;SDS011;59064;45.294;11.816;2022-12-05T07:57:40;11.90;;;8.10;;
68938;SDS011;59064;45.294;11.816;2022-12-05T08:00:06;12.70;;;7.50;;
68938;SDS011;59064;45.294;11.816;2022-12-05T08:02:31;11.10;;;7.60;;
68938;SDS011;59064;45.294;11.816;2022-12-05T08:04:57;12.90;;;8.90;;
68938;SDS011;59064;45.294;11.816;2022-12-05T08:07:23;16.10;;;10.60;;
68938;SDS011;59064;45.294;11.816;2022-12-05T08:09:48;12.00;;;8.30;;
68938;SDS011;59064;45.294;11.816;2022-12-05T08:12:13;11.60;;;7.00;;
68938;SDS011;59064;45.294;11.816;2022-12-05T08:14:39;12.30;;;7.90;;
68938;SDS011;59064;45.294;11.816;2022-12-05T08:17:04;11.20;;;7.20;;
68938;SDS011;59064;45.294;11.816;2022-12-05T08:19:30;10.60;;;7.10;;
68938;SDS011;59064;45.294;11.816;2022-12-05T08:21:56;10.90;;;7.40;;
68938;SDS011;59064;45.294;11.816;2022-12-05T08:24:22;11.80;;;7.70;;
68938;SDS011;59064;45.294;11.816;2022-12-05T08:26:49;11.60;;;7.20;;
68938;SDS011;59064;45.294;11.816;2022-12-05T08:29:14;11.20;;;7.50;;
68938;SDS011;59064;45.294;11.816;2022-12-05T08:31:44;11.40;;;6.90;;
68938;SDS011;59064;45.294;11.816;2022-12-05T08:34:12;11.50;;;7.00;;
68938;SDS011;59064;45.294;11.816;2022-12-05T08:36:39;11.90;;;7.80;;
68938;SDS011;59064;45.294;11.816;2022-12-05T08:39:06;10.00;;;6.10;;
68938;SDS011;59064;45.294;11.816;2022-12-05T08:41:33;11.60;;;7.00;;
68938;SDS011;59064;45.294;11.816;2022-12-05T08:44:00;11.10;;;6.50;;
68938;SDS011;59064;45.294;11.816;2022-12-05T08:46:29;9.80;;;6.50;;
68938;SDS011;59064;45.294;11.816;2022-12-05T08:48:55;10.00;;;6.50;;
68938;SDS011;59064;45.294;11.816;2022-12-05T08:51:21;10.50;;;7.50;;
68938;SDS011;59064;45.294;11.816;2022-12-05T08:53:46;8.50;;;5.90;;
68938;SDS011;59064;45.294;11.816;2022-12-05T08:56:12;10.90;;;5.80;;
68938;SDS011;59064;45.294;11.816;2022-12-05T08:58:38;8.20;;;5.80;;
68938;SDS011;59064;45.294;11.816;2022-12-05T09:01:11;8.50;;;5.90;;
68938;SDS011;59064;45.294;11.816;2022-12-05T09:03:39;8.50;;;5.70;;
68938;SDS011;59064;45.294;11.816;2022-12-05T09:06:09;8.70;;;5.60;;
68938;SDS011;59064;45.294;11.816;2022-12-05T09:08:36;8.00;;;4.80;;
68938;SDS011;59064;45.294;11.816;2022-12-05T09:11:04;7.60;;;5.10;;
68938;SDS011;59064;45.294;11.816;2022-12-05T09:13:30;7.40;;;4.70;;
68938;SDS011;59064;45.294;11.816;2022-12-05T09:15:56;8.20;;;5.30;;
68938;SDS011;59064;45.294;11.816;2022-12-05T09:18:21;7.70;;;4.70;;
68938;SDS011;59064;45.294;11.816;2022-12-05T09:20:47;8.20;;;4.90;;
68938;SDS011;59064;45.294;11.816;2022-12-05T09:23:12;8.10;;;5.40;;
68938;SDS011;59064;45.294;11.816;2022-12-05T09:25:38;7.80;;;4.60;;
68938;SDS011;59064;45.294;11.816;2022-12-05T09:28:03;7.70;;;4.30;;
68938;SDS011;59064;45.294;11.816;2022-12-05T09:30:29;8.30;;;5.00;;
68938;SDS011;59064;45.294;11.816;2022-12-05T09:32:54;8.00;;;5.40;;
68938;SDS011;59064;45.294;11.816;2022-12-05T09:35:19;8.00;;;5.20;;
68938;SDS011;59064;45.294;11.816;2022-12-05T09:37:45;7.60;;;4.40;;
68938;SDS011;59064;45.294;11.816;2022-12-05T09:40:14;8.60;;;5.30;;
68938;SDS011;59064;45.294;11.816;2022-12-05T09:45:34;7.40;;;5.10;;
68938;SDS011;59064;45.294;11.816;2022-12-05T09:48:12;7.70;;;4.90;;
68938;SDS011;59064;45.294;11.816;2022-12-05T09:50:44;10.10;;;5.00;;
68938;SDS011;59064;45.294;11.816;2022-12-05T10:15:00;5.70;;;3.60;;
68938;SDS011;59064;45.294;11.816;2022-12-05T10:17:36;6.80;;;4.10;;
68938;SDS011;59064;45.294;11.816;2022-12-05T10:23:06;7.40;;;4.30;;
68938;SDS011;59064;45.294;11.816;2022-12-05T10:25:39;5.20;;;2.70;;
68938;SDS011;59064;45.294;11.816;2022-12-05T10:28:16;6.10;;;3.30;;
68938;SDS011;59064;45.294;11.816;2022-12-05T10:30:51;6.00;;;4.10;;
68938;SDS011;59064;45.294;11.816;2022-12-05T10:33:21;6.60;;;3.90;;
68938;SDS011;59064;45.294;11.816;2022-12-05T10:35:47;7.00;;;4.30;;
68938;SDS011;59064;45.294;11.816;2022-12-05T10:40:50;6.90;;;4.00;;
68938;SDS011;59064;45.294;11.816;2022-12-05T10:43:22;10.00;;;5.40;;
68938;SDS011;59064;45.294;11.816;2022-12-05T10:45:50;9.90;;;5.90;;
68938;SDS011;59064;45.294;11.816;2022-12-05T10:48:17;9.80;;;6.40;;
68938;SDS011;59064;45.294;11.816;2022-12-05T10:50:45;9.30;;;5.60;;
68938;SDS011;59064;45.294;11.816;2022-12-05T10:53:23;10.90;;;7.40;;
68938;SDS011;59064;45.294;11.816;2022-12-05T10:55:55;9.00;;;5.60;;
68938;SDS011;59064;45.294;11.816;2022-12-05T10:58:25;6.00;;;3.90;;
68938;SDS011;59064;45.294;11.816;2022-12-05T11:00:57;7.40;;;4.60;;
68938;SDS011;59064;45.294;11.816;2022-12-05T11:03:36;7.70;;;4.60;;
68938;SDS011;59064;45.294;11.816;2022-12-05T11:08:52;7.60;;;4.80;;
68938;SDS011;59064;45.294;11.816;2022-12-05T11:11:24;8.10;;;4.90;;
68938;SDS011;59064;45.294;11.816;2022-12-05T11:13:58;7.20;;;4.60;;
68938;SDS011;59064;45.294;11.816;2022-12-05T11:16:28;7.00;;;5.00;;
68938;SDS011;59064;45.294;11.816;2022-12-05T11:19:01;6.30;;;4.10;;
68938;SDS011;59064;45.294;11.816;2022-12-05T11:21:48;7.80;;;4.60;;
68938;SDS011;59064;45.294;11.816;2022-12-05T11:24:21;8.40;;;5.00;;
68938;SDS011;59064;45.294;11.816;2022-12-05T11:26:51;6.90;;;3.60;;
68938;SDS011;59064;45.294;11.816;2022-12-05T11:29:36;7.10;;;4.80;;
68938;SDS011;59064;45.294;11.816;2022-12-05T11:32:04;10.60;;;4.60;;
68938;SDS011;59064;45.294;11.816;2022-12-05T11:34:42;7.70;;;4.60;;
68938;SDS011;59064;45.294;11.816;2022-12-05T11:37:13;8.60;;;5.30;;
68938;SDS011;59064;45.294;11.816;2022-12-05T11:39:44;7.90;;;5.10;;
68938;SDS011;59064;45.294;11.816;2022-12-05T12:19:32;10.10;;;7.30;;
68938;SDS011;59064;45.294;11.816;2022-12-05T12:25:57;9.60;;;6.70;;
68938;SDS011;59064;45.294;11.816;2022-12-05T12:28:33;9.80;;;6.60;;
68938;SDS011;59064;45.294;11.816;2022-12-05T12:36:17;10.20;;;6.80;;
68938;SDS011;59064;45.294;11.816;2022-12-05T12:41:51;13.80;;;8.20;;
68938;SDS011;59064;45.294;11.816;2022-12-05T12:47:03;12.40;;;9.30;;
68938;SDS011;59064;45.294;11.816;2022-12-05T13:05:54;10.20;;;6.80;;
68938;SDS011;59064;45.294;11.816;2022-12-05T13:11:07;11.40;;;7.20;;
68938;SDS011;59064;45.294;11.816;2022-12-05T13:13:44;8.60;;;6.70;;
68938;SDS011;59064;45.294;11.816;2022-12-05T13:16:18;10.40;;;6.90;;
68938;SDS011;59064;45.294;11.816;2022-12-05T13:18:54;10.30;;;7.40;;
68938;SDS011;59064;45.294;11.816;2022-12-05T13:21:21;13.10;;;7.40;;
68938;SDS011;59064;45.294;11.816;2022-12-05T13:23:49;11.20;;;7.30;;
68938;SDS011;59064;45.294;11.816;2022-12-05T13:26:16;12.10;;;7.00;;
68938;SDS011;59064;45.294;11.816;2022-12-05T13:34:02;11.40;;;7.60;;
68938;SDS011;59064;45.294;11.816;2022-12-05T13:36:29;12.50;;;8.40;;
68938;SDS011;59064;45.294;11.816;2022-12-05T13:39:22;10.70;;;7.60;;
68938;SDS011;59064;45.294;11.816;2022-12-05T13:42:18;13.80;;;8.70;;
68938;SDS011;59064;45.294;11.816;2022-12-05T13:44:52;14.40;;;9.40;;
68938;SDS011;59064;45.294;11.816;2022-12-05T13:47:24;13.50;;;8.90;;
68938;SDS011;59064;45.294;11.816;2022-12-05T13:50:00;12.90;;;7.60;;
68938;SDS011;59064;45.294;11.816;2022-12-05T13:52:30;13.20;;;9.00;;
68938;SDS011;59064;45.294;11.816;2022-12-05T13:57:58;17.10;;;9.80;;
68938;SDS011;59064;45.294;11.816;2022-12-05T14:02:57;13.80;;;9.70;;
68938;SDS011;59064;45.294;11.816;2022-12-05T14:07:50;13.40;;;8.70;;
68938;SDS011;59064;45.294;11.816;2022-12-05T14:15:40;14.90;;;10.40;;
68938;SDS011;59064;45.294;11.816;2022-12-05T14:37:24;21.50;;;15.10;;
68938;SDS011;59064;45.294;11.816;2022-12-05T14:39:59;24.10;;;15.90;;
68938;SDS011;59064;45.294;11.816;2022-12-05T14:45:01;17.40;;;13.60;;
68938;SDS011;59064;45.294;11.816;2022-12-05T14:47:50;17.20;;;10.40;;
68938;SDS011;59064;45.294;11.816;2022-12-05T14:58:33;21.10;;;13.30;;
68938;SDS011;59064;45.294;11.816;2022-12-05T15:01:23;20.70;;;12.90;;
68938;SDS011;59064;45.294;11.816;2022-12-05T15:12:27;19.10;;;13.70;;
68938;SDS011;59064;45.294;11.816;2022-12-05T15:26:02;16.10;;;10.90;;
68938;SDS011;59064;45.294;11.816;2022-12-05T15:28:29;17.90;;;12.70;;
68938;SDS011;59064;45.294;11.816;2022-12-05T15:30:55;16.80;;;11.90;;
68938;SDS011;59064;45.294;11.816;2022-12-05T15:33:21;17.20;;;11.10;;
68938;SDS011;59064;45.294;11.816;2022-12-05T15:35:50;14.50;;;10.30;;
68938;SDS011;59064;45.294;11.816;2022-12-05T15:38:23;15.10;;;10.90;;
68938;SDS011;59064;45.294;11.816;2022-12-05T15:40:52;14.90;;;10.20;;
68938;SDS011;59064;45.294;11.816;2022-12-05T15:45:47;18.50;;;11.80;;
68938;SDS011;59064;45.294;11.816;2022-12-05T15:48:13;26.20;;;19.00;;
68938;SDS011;59064;45.294;11.816;2022-12-05T15:53:23;20.70;;;14.00;;
68938;SDS011;59064;45.294;11.816;2022-12-05T15:55:54;24.10;;;14.60;;
68938;SDS011;59064;45.294;11.816;2022-12-05T15:58:26;21.00;;;14.10;;
68938;SDS011;59064;45.294;11.816;2022-12-05T16:08:56;18.60;;;12.40;;
68938;SDS011;59064;45.294;11.816;2022-12-05T16:11:22;28.60;;;22.40;;
68938;SDS011;59064;45.294;11.816;2022-12-05T16:13:50;22.30;;;15.00;;
68938;SDS011;59064;45.294;11.816;2022-12-05T16:16:20;22.20;;;14.40;;
68938;SDS011;59064;45.294;11.816;2022-12-05T16:18:48;25.80;;;18.20;;
68938;SDS011;59064;45.294;11.816;2022-12-05T16:21:30;21.80;;;16.50;;
68938;SDS011;59064;45.294;11.816;2022-12-05T16:24:16;20.30;;;13.20;;
68938;SDS011;59064;45.294;11.816;2022-12-05T16:26:42;22.40;;;16.70;;
68938;SDS011;59064;45.294;11.816;2022-12-05T16:29:30;20.20;;;13.80;;
68938;SDS011;59064;45.294;11.816;2022-12-05T16:31:56;28.00;;;18.50;;
68938;SDS011;59064;45.294;11.816;2022-12-05T16:34:24;20.80;;;13.00;;
68938;SDS011;59064;45.294;11.816;2022-12-05T16:36:51;21.80;;;14.20;;
68938;SDS011;59064;45.294;11.816;2022-12-05T16:39:18;26.30;;;19.20;;
68938;SDS011;59064;45.294;11.816;2022-12-05T16:41:45;24.70;;;16.50;;
68938;SDS011;59064;45.294;11.816;2022-12-05T16:44:51;21.20;;;14.90;;
68938;SDS011;59064;45.294;11.816;2022-12-05T16:53:29;22.20;;;15.50;;
68938;SDS011;59064;45.294;11.816;2022-12-05T16:55:56;27.70;;;18.90;;
68938;SDS011;59064;45.294;11.816;2022-12-05T16:58:24;25.50;;;18.20;;
68938;SDS011;59064;45.294;11.816;2022-12-05T17:00:57;31.40;;;20.10;;
68938;SDS011;59064;45.294;11.816;2022-12-05T17:03:28;29.10;;;18.50;;
68938;SDS011;59064;45.294;11.816;2022-12-05T17:05:55;27.70;;;18.50;;
68938;SDS011;59064;45.294;11.816;2022-12-05T17:08:22;40.90;;;32.80;;
68938;SDS011;59064;45.294;11.816;2022-12-05T17:10:48;23.00;;;16.30;;
68938;SDS011;59064;45.294;11.816;2022-12-05T17:13:14;24.40;;;16.60;;
68938;SDS011;59064;45.294;11.816;2022-12-05T17:15:41;22.60;;;15.30;;
68938;SDS011;59064;45.294;11.816;2022-12-05T17:18:14;20.60;;;14.90;;
68938;SDS011;59064;45.294;11.816;2022-12-05T17:20:42;20.60;;;14.00;;
68938;SDS011;59064;45.294;11.816;2022-12-05T17:23:13;20.40;;;14.00;;
68938;SDS011;59064;45.294;11.816;2022-12-05T17:25:49;20.40;;;13.50;;
68938;SDS011;59064;45.294;11.816;2022-12-05T17:28:17;20.50;;;14.30;;
68938;SDS011;59064;45.294;11.816;2022-12-05T17:30:42;20.50;;;14.20;;
68938;SDS011;59064;45.294;11.816;2022-12-05T17:33:12;24.20;;;15.30;;
68938;SDS011;59064;45.294;11.816;2022-12-05T17:35:38;25.50;;;18.10;;
68938;SDS011;59064;45.294;11.816;2022-12-05T17:38:04;28.70;;;17.70;;
68938;SDS011;59064;45.294;11.816;2022-12-05T17:40:31;31.90;;;18.20;;
68938;SDS011;59064;45.294;11.816;2022-12-05T17:42:57;40.70;;;26.60;;
68938;SDS011;59064;45.294;11.816;2022-12-05T17:45:22;31.40;;;21.70;;
68938;SDS011;59064;45.294;11.816;2022-12-05T17:47:48;27.00;;;18.80;;
68938;SDS011;59064;45.294;11.816;2022-12-05T17:50:16;33.10;;;23.20;;
68938;SDS011;59064;45.294;11.816;2022-12-05T17:52:43;41.40;;;29.00;;
68938;SDS011;59064;45.294;11.816;2022-12-05T17:55:19;37.40;;;24.00;;
68938;SDS011;59064;45.294;11.816;2022-12-05T17:57:47;39.20;;;26.50;;
68938;SDS011;59064;45.294;11.816;2022-12-05T18:00:14;35.00;;;23.40;;
68938;SDS011;59064;45.294;11.816;2022-12-05T18:02:41;27.70;;;18.80;;
68938;SDS011;59064;45.294;11.816;2022-12-05T18:05:08;34.30;;;22.60;;
68938;SDS011;59064;45.294;11.816;2022-12-05T18:07:38;73.20;;;45.70;;
68938;SDS011;59064;45.294;11.816;2022-12-05T18:10:05;38.80;;;22.70;;
68938;SDS011;59064;45.294;11.816;2022-12-05T18:12:35;37.60;;;20.30;;
68938;SDS011;59064;45.294;11.816;2022-12-05T18:15:01;46.90;;;23.70;;
68938;SDS011;59064;45.294;11.816;2022-12-05T18:17:27;33.90;;;20.50;;
68938;SDS011;59064;45.294;11.816;2022-12-05T18:19:53;31.00;;;18.70;;
68938;SDS011;59064;45.294;11.816;2022-12-05T18:22:21;31.20;;;17.80;;
68938;SDS011;59064;45.294;11.816;2022-12-05T18:24:47;32.00;;;19.00;;
68938;SDS011;59064;45.294;11.816;2022-12-05T18:27:13;34.20;;;19.60;;
68938;SDS011;59064;45.294;11.816;2022-12-05T18:29:38;36.40;;;21.70;;
68938;SDS011;59064;45.294;11.816;2022-12-05T18:32:04;37.10;;;21.50;;
68938;SDS011;59064;45.294;11.816;2022-12-05T18:34:29;30.50;;;18.70;;
68938;SDS011;59064;45.294;11.816;2022-12-05T18:36:55;29.90;;;17.50;;
68938;SDS011;59064;45.294;11.816;2022-12-05T18:39:20;31.00;;;18.50;;